< < Back
Terminal Aerodrome Forecast


Current Version              Previous Versions:   1  2  3  4  5  6  7  8  9  

Terminal Aerodrome Forecast

708
FTUS44 KBMX 220500
TAFBHM
TAF
KBHM 220523Z 2206/2306 02005KT P6SM SKC=



Latest METAR

734
SAUS70 KWBC 230200 RRE
MTRBHM
METAR KBHM 230153Z 00000KT 10SM CLR 11/07 A3016 RMK AO2 SLP212
T01060072


USA.gov is the U.S. government's official web portal to all federal, state and local government web resources and services.